createdAt,value
2023-05-04T00:01:07.470Z,6.00
2023-05-04T00:03:41.660Z,5.40
2023-05-04T00:06:15.428Z,6.30
2023-05-04T00:08:49.418Z,6.00
2023-05-04T00:11:25.602Z,5.80
2023-05-04T00:13:59.451Z,6.40
2023-05-04T00:16:33.437Z,6.70
2023-05-04T00:19:07.484Z,5.83
2023-05-04T00:21:37.096Z,5.60
2023-05-04T00:24:04.513Z,5.47
2023-05-04T00:26:38.436Z,6.40
2023-05-04T00:29:18.452Z,6.90
2023-05-04T00:31:45.601Z,5.90
2023-05-04T00:34:20.474Z,5.93
2023-05-04T00:36:54.459Z,6.20
2023-05-04T00:39:27.461Z,6.30
2023-05-04T00:42:01.496Z,6.30
2023-05-04T00:44:35.457Z,6.07
2023-05-04T00:47:10.514Z,5.83
2023-05-04T00:49:44.472Z,6.33
2023-05-04T00:52:21.530Z,5.80
2023-05-04T00:54:56.448Z,6.33
2023-05-04T00:57:30.467Z,6.20
2023-05-04T01:00:04.669Z,6.37
2023-05-04T01:02:38.537Z,7.70
2023-05-04T01:05:25.606Z,5.97
2023-05-04T01:08:04.218Z,6.20
2023-05-04T01:10:53.479Z,6.53
2023-05-04T01:13:29.476Z,5.97
2023-05-04T01:16:03.485Z,6.33
2023-05-04T01:18:31.237Z,6.33
2023-05-04T01:21:04.474Z,6.33
2023-05-04T01:23:31.495Z,7.00
2023-05-04T01:26:32.423Z,6.57
2023-05-04T01:29:22.365Z,7.17
2023-05-04T01:31:59.482Z,6.93
2023-05-04T01:34:33.436Z,7.10
2023-05-04T01:37:07.508Z,7.97
2023-05-04T01:39:34.624Z,7.87
2023-05-04T01:42:08.496Z,7.60
2023-05-04T01:44:37.063Z,7.13
2023-05-04T01:47:11.476Z,7.30
2023-05-04T01:49:38.578Z,7.47
2023-05-04T01:52:12.455Z,7.20
2023-05-04T01:54:39.572Z,7.67
2023-05-04T01:57:13.474Z,7.50
2023-05-04T01:59:40.504Z,7.77
2023-05-04T02:02:14.507Z,8.13
2023-05-04T02:04:48.487Z,7.97
2023-05-04T02:07:22.075Z,8.33
2023-05-04T02:09:57.481Z,8.00
2023-05-04T02:12:24.554Z,8.57
2023-05-04T02:14:58.500Z,8.10
2023-05-04T02:17:32.487Z,7.70
2023-05-04T02:20:06.838Z,7.77
2023-05-04T02:22:41.468Z,7.83
2023-05-04T02:25:08.929Z,8.40
2023-05-04T02:27:42.522Z,7.77
2023-05-04T02:30:17.466Z,8.20
2023-05-04T02:32:51.445Z,9.20
2023-05-04T02:35:26.506Z,8.60
2023-05-04T02:38:00.448Z,9.20
2023-05-04T02:40:34.444Z,9.90
2023-05-04T02:43:08.499Z,9.77
2023-05-04T02:45:42.517Z,10.30
2023-05-04T02:48:16.462Z,10.23
2023-05-04T02:50:53.483Z,11.03
2023-05-04T02:53:20.766Z,9.53
2023-05-04T02:55:54.504Z,11.00
2023-05-04T02:58:21.665Z,11.47
2023-05-04T03:01:00.568Z,11.23
2023-05-04T03:03:29.121Z,11.20
2023-05-04T03:06:10.488Z,11.60
2023-05-04T03:08:39.324Z,10.80
2023-05-04T03:11:13.474Z,11.60
2023-05-04T03:13:48.571Z,12.10
2023-05-04T03:16:23.555Z,11.73
2023-05-04T03:18:59.838Z,10.77
2023-05-04T03:21:33.509Z,12.27
2023-05-04T03:24:00.698Z,12.47
2023-05-04T03:26:34.526Z,13.03
2023-05-04T03:29:08.498Z,13.03
2023-05-04T03:31:42.564Z,12.50
2023-05-04T03:34:19.496Z,12.80
2023-05-04T03:36:55.466Z,14.60
2023-05-04T03:39:22.842Z,13.63
2023-05-04T03:41:50.005Z,12.80
2023-05-04T03:44:23.594Z,14.83
2023-05-04T03:46:51.910Z,14.73
2023-05-04T03:49:25.502Z,15.20
2023-05-04T03:51:59.453Z,15.83
2023-05-04T03:54:33.526Z,15.23
2023-05-04T03:57:08.465Z,14.90
2023-05-04T03:59:42.604Z,14.80
2023-05-04T04:02:09.798Z,15.60
2023-05-04T04:04:45.830Z,16.30
2023-05-04T04:07:19.145Z,16.87
2023-05-04T04:09:53.476Z,15.43
2023-05-04T04:12:27.521Z,16.90
2023-05-04T04:15:01.514Z,17.00
2023-05-04T04:17:35.570Z,16.93
2023-05-04T04:20:02.916Z,17.17
2023-05-04T04:22:36.556Z,16.77
2023-05-04T04:25:04.281Z,16.50
2023-05-04T04:27:38.550Z,16.80
2023-05-04T04:30:18.032Z,15.43
2023-05-04T04:32:45.874Z,17.30
2023-05-04T04:35:20.526Z,17.77
2023-05-04T04:37:47.597Z,17.30
2023-05-04T04:40:22.498Z,17.23
2023-05-04T04:42:49.624Z,17.30
2023-05-04T04:45:23.536Z,17.60
2023-05-04T04:47:58.497Z,17.03
2023-05-04T04:50:32.507Z,17.80
2023-05-04T04:53:01.076Z,17.67
2023-05-04T04:55:35.532Z,16.50
2023-05-04T04:58:02.668Z,16.13
2023-05-04T05:00:37.527Z,15.03
2023-05-04T05:03:11.557Z,17.10
2023-05-04T05:05:45.510Z,15.80
2023-05-04T05:08:19.635Z,16.67
2023-05-04T05:10:53.536Z,17.27
2023-05-04T05:13:20.701Z,17.13
2023-05-04T05:15:54.487Z,16.27
2023-05-04T05:18:28.539Z,15.43
2023-05-04T05:20:56.702Z,15.63
2023-05-04T05:23:23.882Z,15.97
2023-05-04T05:26:12.516Z,15.23
2023-05-04T05:28:55.766Z,15.03
2023-05-04T05:31:29.572Z,15.50
2023-05-04T05:33:56.922Z,15.80
2023-05-04T05:36:30.539Z,14.70
2023-05-04T05:39:00.152Z,15.13
2023-05-04T05:41:34.550Z,15.53
2023-05-04T05:44:08.601Z,15.43
2023-05-04T05:46:42.576Z,14.68
2023-05-04T05:49:16.546Z,15.07
2023-05-04T05:51:50.562Z,15.02
2023-05-04T05:54:20.079Z,14.77
2023-05-04T05:56:47.261Z,14.32
2023-05-04T05:59:22.530Z,13.73
2023-05-04T06:01:56.592Z,13.80
2023-05-04T06:04:23.756Z,12.40
2023-05-04T06:07:03.489Z,12.35
2023-05-04T06:09:37.515Z,11.80
2023-05-04T06:12:07.172Z,13.25
2023-05-04T06:14:43.546Z,11.65
2023-05-04T06:17:17.569Z,11.40
2023-05-04T06:19:48.761Z,12.05
2023-05-04T06:22:24.515Z,11.52
2023-05-04T06:24:52.912Z,11.75
2023-05-04T06:27:27.544Z,11.25
2023-05-04T06:29:56.202Z,10.32
2023-05-04T06:32:29.512Z,9.55
2023-05-04T06:34:57.048Z,10.50
2023-05-04T06:37:30.549Z,10.07
2023-05-04T06:39:57.824Z,10.00
2023-05-04T06:42:31.561Z,9.73
2023-05-04T06:44:58.808Z,10.05
2023-05-04T06:47:32.566Z,10.32
2023-05-04T06:49:59.980Z,9.23
2023-05-04T06:52:36.548Z,8.75
2023-05-04T06:55:03.900Z,8.40
2023-05-04T06:57:37.531Z,9.00
2023-05-04T07:00:06.533Z,8.60
2023-05-04T07:02:40.540Z,8.52
2023-05-04T07:05:14.780Z,8.52
2023-05-04T07:07:55.568Z,8.20
2023-05-04T07:10:29.549Z,8.65
2023-05-04T07:13:03.630Z,8.02
2023-05-04T07:15:33.474Z,8.43
2023-05-04T07:18:07.649Z,7.90
2023-05-04T07:20:34.835Z,7.72
2023-05-04T07:23:08.517Z,8.45
2023-05-04T07:25:35.730Z,7.50
2023-05-04T07:28:09.554Z,7.63
2023-05-04T07:30:43.773Z,7.25
2023-05-04T07:33:17.537Z,8.25
2023-05-04T07:35:51.533Z,6.97
2023-05-04T07:38:25.558Z,7.55
2023-05-04T07:40:54.615Z,7.72
2023-05-04T07:43:28.783Z,8.38
2023-05-04T07:45:56.722Z,7.50
2023-05-04T07:48:30.612Z,7.63
2023-05-04T07:50:57.881Z,9.05
2023-05-04T07:53:32.557Z,7.32
2023-05-04T07:56:09.960Z,7.65
2023-05-04T07:58:43.525Z,6.95
2023-05-04T08:01:10.724Z,7.50
2023-05-04T08:03:38.383Z,6.55
2023-05-04T08:06:11.581Z,6.85
2023-05-04T08:08:53.569Z,7.35
2023-05-04T08:11:27.587Z,6.80
2023-05-04T08:13:56.155Z,6.93
2023-05-04T08:16:29.636Z,6.93
2023-05-04T08:18:57.510Z,6.47
2023-05-04T08:21:31.586Z,6.47
2023-05-04T08:23:58.784Z,6.43
2023-05-04T08:26:26.735Z,6.78
2023-05-04T08:29:00.599Z,6.10
2023-05-04T08:31:34.619Z,5.68
2023-05-04T08:34:08.745Z,5.90
2023-05-04T08:36:35.917Z,5.88
2023-05-04T08:39:10.651Z,5.35
2023-05-04T08:41:41.152Z,4.93
2023-05-04T08:44:17.549Z,5.47
2023-05-04T08:46:52.590Z,4.82
2023-05-04T08:49:31.624Z,4.57
2023-05-04T08:52:07.563Z,5.20
2023-05-04T08:54:36.682Z,4.78
2023-05-04T08:57:11.637Z,5.47
2023-05-04T08:59:45.565Z,4.70
2023-05-04T09:02:20.578Z,4.22
2023-05-04T09:04:54.580Z,4.53
2023-05-04T09:07:28.211Z,3.97
2023-05-04T09:10:03.555Z,4.15
2023-05-04T09:12:31.579Z,4.55
2023-05-04T09:15:08.601Z,3.85
2023-05-04T09:17:39.698Z,4.15
2023-05-04T09:20:19.571Z,4.55
2023-05-04T09:22:53.564Z,4.47
2023-05-04T09:25:20.566Z,4.15
2023-05-04T09:28:01.569Z,4.40
2023-05-04T09:30:35.561Z,3.83
2023-05-04T09:33:03.437Z,3.25
2023-05-04T09:35:37.654Z,4.22
2023-05-04T09:38:11.703Z,3.78
2023-05-04T09:40:42.373Z,3.28
2023-05-04T09:43:20.154Z,2.67
2023-05-04T09:45:49.167Z,2.63
2023-05-04T09:48:35.628Z,3.50
2023-05-04T09:51:03.603Z,3.10
2023-05-04T09:53:39.620Z,2.42
2023-05-04T09:56:51.616Z,2.80
2023-05-04T09:59:27.605Z,3.55
2023-05-04T10:01:54.937Z,2.70
2023-05-04T10:04:29.726Z,2.50
2023-05-04T10:07:03.692Z,2.47
2023-05-04T10:09:38.661Z,2.42
2023-05-04T10:12:12.651Z,3.08
2023-05-04T10:14:46.738Z,2.30
2023-05-04T10:17:58.207Z,2.90
2023-05-04T10:21:04.586Z,2.70
2023-05-04T10:24:24.637Z,2.80
2023-05-04T10:27:23.673Z,3.22
2023-05-04T10:29:58.665Z,2.72
2023-05-04T10:32:32.647Z,2.95
2023-05-04T10:35:14.576Z,3.20
2023-05-04T10:37:54.620Z,2.92
2023-05-04T10:40:46.651Z,2.83
2023-05-04T10:43:26.196Z,2.42
2023-05-04T10:45:59.717Z,3.08
2023-05-04T10:48:36.965Z,2.63
2023-05-04T10:51:11.623Z,2.78
2023-05-04T10:53:45.608Z,2.72
2023-05-04T10:56:28.029Z,2.63
2023-05-04T10:59:02.653Z,2.63
2023-05-04T11:01:36.677Z,2.70
2023-05-04T11:04:04.129Z,2.35
2023-05-04T11:06:44.646Z,2.47
2023-05-04T11:09:24.680Z,2.70
2023-05-04T11:12:03.628Z,2.80
2023-05-04T11:14:37.826Z,2.65
2023-05-04T11:19:58.649Z,2.53
2023-05-04T11:22:25.716Z,2.75
2023-05-04T11:24:59.680Z,2.70
2023-05-04T11:27:37.628Z,2.58
2023-05-04T11:30:12.692Z,2.33
2023-05-04T11:32:53.702Z,2.35
2023-05-04T11:35:31.665Z,2.10
2023-05-04T11:37:58.866Z,2.60
2023-05-04T11:40:34.672Z,2.80
2023-05-04T11:43:04.369Z,3.10
2023-05-04T11:45:41.679Z,2.38
2023-05-04T11:48:10.309Z,2.80
2023-05-04T11:50:44.664Z,2.70
2023-05-04T11:53:13.930Z,2.67
2023-05-04T11:55:48.655Z,2.67
2023-05-04T11:58:23.416Z,2.85
2023-05-04T12:01:03.677Z,3.13
2023-05-04T12:03:51.381Z,2.42
2023-05-04T12:06:39.669Z,2.70
2023-05-04T12:09:13.679Z,2.17
2023-05-04T12:11:47.657Z,2.10
2023-05-04T12:14:14.778Z,2.40
2023-05-04T12:16:49.680Z,2.47
2023-05-04T12:19:17.044Z,2.35
2023-05-04T12:22:01.648Z,2.60
2023-05-04T12:24:35.725Z,2.53
2023-05-04T12:27:09.773Z,2.70
2023-05-04T12:29:43.707Z,2.78
2023-05-04T12:32:18.743Z,2.47
2023-05-04T12:34:46.241Z,2.55
2023-05-04T12:37:19.660Z,2.10
2023-05-04T12:39:46.690Z,2.08
2023-05-04T12:42:13.776Z,2.17
2023-05-04T12:44:47.624Z,1.90
2023-05-04T12:47:15.431Z,2.22
2023-05-04T12:49:50.102Z,2.20
2023-05-04T12:52:17.260Z,2.10
2023-05-04T12:54:50.640Z,2.42
2023-05-04T12:57:17.807Z,2.30
2023-05-04T12:59:51.679Z,2.10
2023-05-04T13:02:26.144Z,2.45
2023-05-04T13:04:53.801Z,2.20
2023-05-04T13:07:33.690Z,2.20
2023-05-04T13:10:01.592Z,2.50
2023-05-04T13:12:34.723Z,2.10
2023-05-04T13:15:01.866Z,2.30
2023-05-04T13:17:40.762Z,2.20
2023-05-04T13:20:13.660Z,2.10
2023-05-04T13:22:47.688Z,2.10
2023-05-04T13:25:15.217Z,2.20
2023-05-04T13:27:48.755Z,2.28
2023-05-04T13:30:24.693Z,2.10
2023-05-04T13:32:58.814Z,2.35
2023-05-04T13:35:32.671Z,1.85
2023-05-04T13:38:06.721Z,2.00
2023-05-04T13:40:40.685Z,2.17
2023-05-04T13:43:07.797Z,1.95
2023-05-04T13:45:41.699Z,2.10
2023-05-04T13:48:08.900Z,2.30
2023-05-04T13:50:42.705Z,1.85
2023-05-04T13:53:19.788Z,2.20
2023-05-04T13:55:54.062Z,2.58
2023-05-04T13:58:24.858Z,2.13
2023-05-04T14:01:03.024Z,1.80
2023-05-04T14:03:38.807Z,2.13
2023-05-04T14:06:19.774Z,2.15
2023-05-04T14:08:54.588Z,2.15
2023-05-04T14:11:30.049Z,1.90
2023-05-04T14:14:05.130Z,1.90
2023-05-04T14:16:34.037Z,1.95
2023-05-04T14:19:09.903Z,2.15
2023-05-04T14:21:37.568Z,2.05
2023-05-04T14:24:05.361Z,1.90
2023-05-04T14:26:39.819Z,2.13
2023-05-04T14:29:08.709Z,1.80
2023-05-04T14:31:44.882Z,1.70
2023-05-04T14:34:12.805Z,2.00
2023-05-04T14:36:40.371Z,1.88
2023-05-04T14:39:14.776Z,1.90
2023-05-04T14:41:42.346Z,1.90
2023-05-04T14:44:16.889Z,2.03
2023-05-04T14:46:44.373Z,1.80
2023-05-04T14:49:34.943Z,2.10
2023-05-04T14:52:10.877Z,2.05
2023-05-04T14:54:38.611Z,2.05
2023-05-04T14:57:16.160Z,1.83
2023-05-04T14:59:51.002Z,2.17
2023-05-04T15:02:19.463Z,3.03
2023-05-04T15:04:53.920Z,2.17
2023-05-04T15:07:27.865Z,2.10
2023-05-04T15:10:08.182Z,1.98
2023-05-04T15:12:44.060Z,2.30
2023-05-04T15:15:13.437Z,2.10
2023-05-04T15:17:47.816Z,2.20
2023-05-04T15:20:16.548Z,1.83
2023-05-04T15:22:59.823Z,1.88
2023-05-04T15:25:33.899Z,1.90
2023-05-04T15:28:07.794Z,2.38
2023-05-04T15:30:41.794Z,2.50
2023-05-04T15:33:22.790Z,7.20
2023-05-04T15:35:56.772Z,2.00
2023-05-04T15:38:32.958Z,1.83
2023-05-04T15:41:07.173Z,1.77
2023-05-04T15:43:34.695Z,2.10
2023-05-04T15:46:08.829Z,2.13
2023-05-04T15:48:42.843Z,2.00
2023-05-04T15:51:19.905Z,2.00
2023-05-04T15:53:47.429Z,1.88
2023-05-04T15:56:15.743Z,2.25
2023-05-04T15:58:51.821Z,2.50
2023-05-04T16:01:25.805Z,4.07
2023-05-04T16:04:05.821Z,3.15
2023-05-04T16:06:52.823Z,3.75
2023-05-04T16:09:27.952Z,2.00
2023-05-04T16:12:01.888Z,2.30
2023-05-04T16:14:36.957Z,2.72
2023-05-04T16:17:11.056Z,8.68
2023-05-04T16:19:44.878Z,2.20
2023-05-04T16:22:18.815Z,3.88
2023-05-04T16:24:53.839Z,2.35
2023-05-04T16:27:30.856Z,3.70
2023-05-04T16:30:05.406Z,2.50
2023-05-04T16:32:33.087Z,3.15
2023-05-04T16:35:06.853Z,2.22
2023-05-04T16:37:43.819Z,2.30
2023-05-04T16:40:22.042Z,2.00
2023-05-04T16:42:55.927Z,2.20
2023-05-04T16:45:31.866Z,2.05
2023-05-04T16:47:59.692Z,2.38
2023-05-04T16:50:33.798Z,2.33
2023-05-04T16:53:07.832Z,1.98
2023-05-04T16:55:42.832Z,2.10
2023-05-04T16:58:16.805Z,2.20
2023-05-04T17:00:51.094Z,2.28
2023-05-04T17:03:18.638Z,2.30
2023-05-04T17:05:52.831Z,2.22
2023-05-04T17:08:26.554Z,2.30
2023-05-04T17:11:06.785Z,2.53
2023-05-04T17:13:40.941Z,2.40
2023-05-04T17:16:16.913Z,2.30
2023-05-04T17:18:46.411Z,2.30
2023-05-04T17:21:19.809Z,2.95
2023-05-04T17:23:46.890Z,2.45
2023-05-04T17:26:20.800Z,2.35
2023-05-04T17:28:54.818Z,2.28
2023-05-04T17:31:21.878Z,2.60
2023-05-04T17:33:55.775Z,2.30
2023-05-04T17:36:23.927Z,2.65
2023-05-04T17:38:57.806Z,3.80
2023-05-04T17:41:25.267Z,3.05
2023-05-04T17:44:03.795Z,2.28
2023-05-04T17:46:40.308Z,2.88
2023-05-04T17:49:16.941Z,2.30
2023-05-04T17:51:45.467Z,2.05
2023-05-04T17:54:22.056Z,2.10
2023-05-04T17:56:49.098Z,2.25
2023-05-04T17:59:23.820Z,2.40
2023-05-04T18:01:50.840Z,2.10
2023-05-04T18:04:25.810Z,2.13
2023-05-04T18:06:59.887Z,1.80
2023-05-04T18:09:40.798Z,1.90
2023-05-04T18:12:09.254Z,2.47
2023-05-04T18:14:42.778Z,2.25
2023-05-04T18:17:15.791Z,2.13
2023-05-04T18:19:49.786Z,2.65
2023-05-04T18:22:18.407Z,2.75
2023-05-04T18:24:55.827Z,3.22
2023-05-04T18:27:22.929Z,3.60
2023-05-04T18:29:56.865Z,3.20
2023-05-04T18:32:32.008Z,4.00
2023-05-04T18:34:59.117Z,3.92
2023-05-04T18:37:32.798Z,3.53
2023-05-04T18:40:00.581Z,3.17
2023-05-04T18:42:33.836Z,2.78
2023-05-04T18:45:02.455Z,3.00
2023-05-04T18:47:37.861Z,2.92
2023-05-04T18:50:06.307Z,2.80
2023-05-04T18:52:40.835Z,3.17
2023-05-04T18:55:10.387Z,2.85
2023-05-04T18:57:44.812Z,3.25
2023-05-04T19:00:24.850Z,3.28
2023-05-04T19:02:51.984Z,3.83
2023-05-04T19:05:25.827Z,3.30
2023-05-04T19:08:06.769Z,2.85
2023-05-04T19:10:35.085Z,3.00
2023-05-04T19:13:08.864Z,3.58
2023-05-04T19:15:42.812Z,3.10
2023-05-04T19:18:16.879Z,3.17
2023-05-04T19:20:50.785Z,3.38
2023-05-04T19:23:19.261Z,3.17
2023-05-04T19:25:52.805Z,2.90
2023-05-04T19:28:19.857Z,3.03
2023-05-04T19:30:54.020Z,2.92
2023-05-04T19:33:22.215Z,3.20
2023-05-04T19:35:57.861Z,3.50
2023-05-04T19:38:34.822Z,3.30
2023-05-04T19:41:11.151Z,3.70
2023-05-04T19:43:48.200Z,3.50
2023-05-04T19:46:15.288Z,3.80
2023-05-04T19:48:42.692Z,2.85
2023-05-04T19:51:15.839Z,3.50
2023-05-04T19:53:44.163Z,3.47
2023-05-04T19:56:17.894Z,2.85
2023-05-04T19:58:44.985Z,3.53
2023-05-04T20:01:18.863Z,3.28
2023-05-04T20:03:45.935Z,3.20
2023-05-04T20:06:19.850Z,3.65
2023-05-04T20:09:00.914Z,3.60
2023-05-04T20:11:34.828Z,3.58
2023-05-04T20:14:09.799Z,3.25
2023-05-04T20:16:37.484Z,3.05
2023-05-04T20:19:10.796Z,3.35
2023-05-04T20:21:37.792Z,3.67
2023-05-04T20:24:11.874Z,3.75
2023-05-04T20:26:39.119Z,3.78
2023-05-04T20:29:13.136Z,3.25
2023-05-04T20:31:41.444Z,3.50
2023-05-04T20:34:08.546Z,3.40
2023-05-04T20:36:43.843Z,3.85
2023-05-04T20:39:11.405Z,3.47
2023-05-04T20:41:44.856Z,3.65
2023-05-04T20:44:12.079Z,3.85
2023-05-04T20:46:45.800Z,3.35
2023-05-04T20:49:19.820Z,3.65
2023-05-04T20:51:49.322Z,3.38
2023-05-04T20:54:23.848Z,3.88
2023-05-04T20:56:51.039Z,3.65
2023-05-04T20:59:24.849Z,3.40
2023-05-04T21:01:51.910Z,3.72
2023-05-04T21:04:27.865Z,3.60
2023-05-04T21:07:14.828Z,3.08
2023-05-04T21:09:49.990Z,3.13
2023-05-04T21:12:17.528Z,3.13
2023-05-04T21:14:45.856Z,3.60
2023-05-04T21:17:19.821Z,3.63
2023-05-04T21:19:47.152Z,3.55
2023-05-04T21:22:23.871Z,3.53
2023-05-04T21:24:51.063Z,3.60
2023-05-04T21:27:24.868Z,3.65
2023-05-04T21:29:58.809Z,3.38
2023-05-04T21:32:33.850Z,2.80
2023-05-04T21:35:08.858Z,3.10
2023-05-04T21:37:42.816Z,3.20
2023-05-04T21:40:11.053Z,3.67
2023-05-04T21:42:38.122Z,3.13
2023-05-04T21:45:12.818Z,3.00
2023-05-04T21:47:46.849Z,3.28
2023-05-04T21:50:22.266Z,3.45
2023-05-04T21:52:55.824Z,3.40
2023-05-04T21:55:29.839Z,3.08
2023-05-04T21:57:59.272Z,3.10
2023-05-04T22:00:26.836Z,3.22
2023-05-04T22:03:01.974Z,3.17
2023-05-04T22:05:35.854Z,3.20
2023-05-04T22:08:09.856Z,3.17
2023-05-04T22:10:37.503Z,2.70
2023-05-04T22:13:12.397Z,3.03
2023-05-04T22:15:49.305Z,2.90
2023-05-04T22:18:23.907Z,3.13
2023-05-04T22:20:57.859Z,2.70
2023-05-04T22:23:31.821Z,2.92
2023-05-04T22:25:58.887Z,2.97
2023-05-04T22:28:33.827Z,2.80
2023-05-04T22:31:07.929Z,2.72
2023-05-04T22:33:35.118Z,2.97
2023-05-04T22:36:09.886Z,3.03
2023-05-04T22:38:36.938Z,2.97
2023-05-04T22:41:10.849Z,2.90
2023-05-04T22:43:37.919Z,3.20
2023-05-04T22:46:05.055Z,2.92
2023-05-04T22:48:40.906Z,3.40
2023-05-04T22:51:14.840Z,3.05
2023-05-04T22:53:48.846Z,3.20
2023-05-04T22:56:16.104Z,3.00
2023-05-04T22:58:52.941Z,3.03
2023-05-04T23:01:20.050Z,3.10
2023-05-04T23:03:54.038Z,3.15
2023-05-04T23:06:27.861Z,3.17
2023-05-04T23:09:01.876Z,3.13
2023-05-04T23:11:29.269Z,3.55
2023-05-04T23:14:02.908Z,2.90
2023-05-04T23:16:39.378Z,3.20
2023-05-04T23:19:12.921Z,3.42
2023-05-04T23:21:39.942Z,3.15
2023-05-04T23:24:15.946Z,3.40
2023-05-04T23:26:42.946Z,3.70
2023-05-04T23:29:16.918Z,3.13
2023-05-04T23:31:44.066Z,3.35
2023-05-04T23:34:17.855Z,3.00
2023-05-04T23:36:54.209Z,2.70
2023-05-04T23:39:21.576Z,3.10
2023-05-04T23:41:54.887Z,3.22
2023-05-04T23:44:22.042Z,3.17
2023-05-04T23:46:55.913Z,3.20
2023-05-04T23:49:29.836Z,3.20
2023-05-04T23:51:57.000Z,3.72
2023-05-04T23:54:30.869Z,3.60
2023-05-04T23:56:59.304Z,3.03
2023-05-04T23:59:26.838Z,3.40
